sensor_id;sensor_type;location;lat;lon;timestamp;P1;durP1;ratioP1;P2;durP2;ratioP2
3052;SDS011;1536;51.098;6.414;2022-07-29T00:00:29;5.87;;;1.80;;
3052;SDS011;1536;51.098;6.414;2022-07-29T00:02:56;9.07;;;2.57;;
3052;SDS011;1536;51.098;6.414;2022-07-29T00:05:23;5.97;;;2.00;;
3052;SDS011;1536;51.098;6.414;2022-07-29T00:07:50;9.50;;;2.00;;
3052;SDS011;1536;51.098;6.414;2022-07-29T00:10:17;3.93;;;1.87;;
3052;SDS011;1536;51.098;6.414;2022-07-29T00:12:44;4.13;;;2.10;;
3052;SDS011;1536;51.098;6.414;2022-07-29T00:15:12;2.50;;;2.20;;
3052;SDS011;1536;51.098;6.414;2022-07-29T00:17:39;3.93;;;1.63;;
3052;SDS011;1536;51.098;6.414;2022-07-29T00:20:07;5.87;;;1.73;;
3052;SDS011;1536;51.098;6.414;2022-07-29T00:22:36;5.30;;;1.80;;
3052;SDS011;1536;51.098;6.414;2022-07-29T00:25:03;3.30;;;2.00;;
3052;SDS011;1536;51.098;6.414;2022-07-29T00:27:31;5.43;;;2.07;;
3052;SDS011;1536;51.098;6.414;2022-07-29T00:29:58;2.70;;;2.10;;
3052;SDS011;1536;51.098;6.414;2022-07-29T00:32:26;5.40;;;1.67;;
3052;SDS011;1536;51.098;6.414;2022-07-29T00:34:53;4.50;;;1.67;;
3052;SDS011;1536;51.098;6.414;2022-07-29T00:37:37;3.83;;;1.63;;
3052;SDS011;1536;51.098;6.414;2022-07-29T00:40:04;2.13;;;1.77;;
3052;SDS011;1536;51.098;6.414;2022-07-29T00:42:40;9.90;;;1.90;;
3052;SDS011;1536;51.098;6.414;2022-07-29T00:45:08;3.00;;;1.90;;
3052;SDS011;1536;51.098;6.414;2022-07-29T00:47:37;5.60;;;1.90;;
3052;SDS011;1536;51.098;6.414;2022-07-29T00:50:04;5.50;;;2.03;;
3052;SDS011;1536;51.098;6.414;2022-07-29T00:52:33;5.50;;;1.90;;
3052;SDS011;1536;51.098;6.414;2022-07-29T00:55:02;3.43;;;1.60;;
3052;SDS011;1536;51.098;6.414;2022-07-29T00:57:29;2.67;;;1.57;;
3052;SDS011;1536;51.098;6.414;2022-07-29T00:59:56;2.70;;;1.70;;
3052;SDS011;1536;51.098;6.414;2022-07-29T01:02:23;4.93;;;1.70;;
3052;SDS011;1536;51.098;6.414;2022-07-29T01:04:51;3.97;;;1.90;;
3052;SDS011;1536;51.098;6.414;2022-07-29T01:07:18;3.67;;;1.70;;
3052;SDS011;1536;51.098;6.414;2022-07-29T01:09:45;4.27;;;1.70;;
3052;SDS011;1536;51.098;6.414;2022-07-29T01:12:13;2.70;;;2.00;;
3052;SDS011;1536;51.098;6.414;2022-07-29T01:14:43;6.90;;;2.07;;
3052;SDS011;1536;51.098;6.414;2022-07-29T01:17:11;4.83;;;2.20;;
3052;SDS011;1536;51.098;6.414;2022-07-29T01:19:45;3.00;;;1.80;;
3052;SDS011;1536;51.098;6.414;2022-07-29T01:22:23;6.27;;;2.47;;
3052;SDS011;1536;51.098;6.414;2022-07-29T01:27:51;4.20;;;1.83;;
3052;SDS011;1536;51.098;6.414;2022-07-29T01:30:34;4.87;;;2.00;;
3052;SDS011;1536;51.098;6.414;2022-07-29T01:33:06;4.23;;;1.60;;
3052;SDS011;1536;51.098;6.414;2022-07-29T01:35:37;5.13;;;1.90;;
3052;SDS011;1536;51.098;6.414;2022-07-29T01:38:06;4.23;;;1.90;;
3052;SDS011;1536;51.098;6.414;2022-07-29T01:40:38;10.03;;;2.20;;
3052;SDS011;1536;51.098;6.414;2022-07-29T01:43:11;5.23;;;2.00;;
3052;SDS011;1536;51.098;6.414;2022-07-29T01:45:45;6.30;;;2.17;;
3052;SDS011;1536;51.098;6.414;2022-07-29T01:48:18;3.83;;;1.90;;
3052;SDS011;1536;51.098;6.414;2022-07-29T01:50:49;3.03;;;2.23;;
3052;SDS011;1536;51.098;6.414;2022-07-29T01:53:21;4.67;;;2.37;;
3052;SDS011;1536;51.098;6.414;2022-07-29T01:55:52;4.93;;;2.20;;
3052;SDS011;1536;51.098;6.414;2022-07-29T01:58:20;3.20;;;1.80;;
3052;SDS011;1536;51.098;6.414;2022-07-29T02:00:50;4.20;;;1.97;;
3052;SDS011;1536;51.098;6.414;2022-07-29T02:03:17;5.40;;;1.90;;
3052;SDS011;1536;51.098;6.414;2022-07-29T02:05:45;7.73;;;2.33;;
3052;SDS011;1536;51.098;6.414;2022-07-29T02:08:14;4.50;;;2.50;;
3052;SDS011;1536;51.098;6.414;2022-07-29T02:10:43;4.03;;;2.10;;
3052;SDS011;1536;51.098;6.414;2022-07-29T02:13:11;3.50;;;2.20;;
3052;SDS011;1536;51.098;6.414;2022-07-29T02:15:39;5.20;;;1.80;;
3052;SDS011;1536;51.098;6.414;2022-07-29T02:18:11;4.03;;;1.90;;
3052;SDS011;1536;51.098;6.414;2022-07-29T02:20:42;10.23;;;2.07;;
3052;SDS011;1536;51.098;6.414;2022-07-29T02:23:11;6.40;;;2.37;;
3052;SDS011;1536;51.098;6.414;2022-07-29T02:25:41;3.03;;;1.50;;
3052;SDS011;1536;51.098;6.414;2022-07-29T02:28:08;3.80;;;1.77;;
3052;SDS011;1536;51.098;6.414;2022-07-29T02:30:36;5.47;;;1.67;;
3052;SDS011;1536;51.098;6.414;2022-07-29T02:33:06;6.40;;;2.33;;
3052;SDS011;1536;51.098;6.414;2022-07-29T02:35:38;3.70;;;1.90;;
3052;SDS011;1536;51.098;6.414;2022-07-29T02:38:07;2.50;;;2.00;;
3052;SDS011;1536;51.098;6.414;2022-07-29T02:40:52;4.07;;;2.30;;
3052;SDS011;1536;51.098;6.414;2022-07-29T02:43:21;3.50;;;2.13;;
3052;SDS011;1536;51.098;6.414;2022-07-29T02:45:50;4.83;;;1.93;;
3052;SDS011;1536;51.098;6.414;2022-07-29T02:48:21;3.33;;;1.87;;
3052;SDS011;1536;51.098;6.414;2022-07-29T02:50:58;5.90;;;2.20;;
3052;SDS011;1536;51.098;6.414;2022-07-29T02:53:31;6.93;;;2.17;;
3052;SDS011;1536;51.098;6.414;2022-07-29T02:56:01;7.37;;;1.90;;
3052;SDS011;1536;51.098;6.414;2022-07-29T02:58:34;6.77;;;2.00;;
3052;SDS011;1536;51.098;6.414;2022-07-29T03:01:07;3.10;;;1.80;;
3052;SDS011;1536;51.098;6.414;2022-07-29T03:03:40;2.23;;;1.87;;
3052;SDS011;1536;51.098;6.414;2022-07-29T03:06:09;6.57;;;1.90;;
3052;SDS011;1536;51.098;6.414;2022-07-29T03:08:39;3.10;;;2.00;;
3052;SDS011;1536;51.098;6.414;2022-07-29T03:11:07;2.77;;;1.70;;
3052;SDS011;1536;51.098;6.414;2022-07-29T03:13:35;5.63;;;1.83;;
3052;SDS011;1536;51.098;6.414;2022-07-29T03:16:02;7.83;;;1.90;;
3052;SDS011;1536;51.098;6.414;2022-07-29T03:18:31;2.47;;;1.90;;
3052;SDS011;1536;51.098;6.414;2022-07-29T03:20:59;3.57;;;2.07;;
3052;SDS011;1536;51.098;6.414;2022-07-29T03:26:09;4.33;;;2.00;;
3052;SDS011;1536;51.098;6.414;2022-07-29T03:28:36;4.63;;;1.80;;
3052;SDS011;1536;51.098;6.414;2022-07-29T03:31:03;4.00;;;1.90;;
3052;SDS011;1536;51.098;6.414;2022-07-29T03:33:30;4.03;;;2.10;;
3052;SDS011;1536;51.098;6.414;2022-07-29T03:35:57;7.00;;;2.10;;
3052;SDS011;1536;51.098;6.414;2022-07-29T03:38:26;10.30;;;2.60;;
3052;SDS011;1536;51.098;6.414;2022-07-29T03:40:56;4.00;;;2.07;;
3052;SDS011;1536;51.098;6.414;2022-07-29T03:43:26;4.23;;;2.87;;
3052;SDS011;1536;51.098;6.414;2022-07-29T03:45:56;5.80;;;2.23;;
3052;SDS011;1536;51.098;6.414;2022-07-29T03:48:26;5.37;;;3.27;;
3052;SDS011;1536;51.098;6.414;2022-07-29T03:50:54;5.13;;;2.30;;
3052;SDS011;1536;51.098;6.414;2022-07-29T03:53:21;7.57;;;2.73;;
3052;SDS011;1536;51.098;6.414;2022-07-29T03:55:54;7.23;;;2.90;;
3052;SDS011;1536;51.098;6.414;2022-07-29T03:58:25;4.50;;;2.43;;
3052;SDS011;1536;51.098;6.414;2022-07-29T04:00:53;5.80;;;2.70;;
3052;SDS011;1536;51.098;6.414;2022-07-29T04:03:21;3.00;;;2.43;;
3052;SDS011;1536;51.098;6.414;2022-07-29T04:05:57;3.67;;;2.63;;
3052;SDS011;1536;51.098;6.414;2022-07-29T04:08:25;5.03;;;2.93;;
3052;SDS011;1536;51.098;6.414;2022-07-29T04:10:53;5.40;;;2.80;;
3052;SDS011;1536;51.098;6.414;2022-07-29T04:13:20;4.23;;;2.43;;
3052;SDS011;1536;51.098;6.414;2022-07-29T04:15:47;3.70;;;2.60;;
3052;SDS011;1536;51.098;6.414;2022-07-29T04:18:15;8.20;;;2.93;;
3052;SDS011;1536;51.098;6.414;2022-07-29T04:20:42;4.50;;;2.80;;
3052;SDS011;1536;51.098;6.414;2022-07-29T04:23:08;7.23;;;3.60;;
3052;SDS011;1536;51.098;6.414;2022-07-29T04:25:36;12.80;;;3.87;;
3052;SDS011;1536;51.098;6.414;2022-07-29T04:28:06;5.53;;;3.03;;
3052;SDS011;1536;51.098;6.414;2022-07-29T04:30:33;8.57;;;2.50;;
3052;SDS011;1536;51.098;6.414;2022-07-29T04:33:01;5.87;;;2.73;;
3052;SDS011;1536;51.098;6.414;2022-07-29T04:35:30;7.70;;;3.20;;
3052;SDS011;1536;51.098;6.414;2022-07-29T04:37:59;8.77;;;3.30;;
3052;SDS011;1536;51.098;6.414;2022-07-29T04:40:27;6.70;;;3.30;;
3052;SDS011;1536;51.098;6.414;2022-07-29T04:42:54;8.07;;;3.60;;
3052;SDS011;1536;51.098;6.414;2022-07-29T04:45:22;6.93;;;3.70;;
3052;SDS011;1536;51.098;6.414;2022-07-29T04:47:49;3.40;;;2.87;;
3052;SDS011;1536;51.098;6.414;2022-07-29T04:50:16;5.80;;;4.30;;
3052;SDS011;1536;51.098;6.414;2022-07-29T04:52:43;5.53;;;3.43;;
3052;SDS011;1536;51.098;6.414;2022-07-29T04:55:10;5.40;;;3.03;;
3052;SDS011;1536;51.098;6.414;2022-07-29T04:57:37;8.37;;;3.00;;
3052;SDS011;1536;51.098;6.414;2022-07-29T05:00:04;6.10;;;2.90;;
3052;SDS011;1536;51.098;6.414;2022-07-29T05:02:34;5.20;;;3.17;;
3052;SDS011;1536;51.098;6.414;2022-07-29T05:05:01;8.00;;;3.20;;
3052;SDS011;1536;51.098;6.414;2022-07-29T05:07:27;3.80;;;3.00;;
3052;SDS011;1536;51.098;6.414;2022-07-29T05:09:54;4.80;;;3.00;;
3052;SDS011;1536;51.098;6.414;2022-07-29T05:12:22;4.90;;;3.20;;
3052;SDS011;1536;51.098;6.414;2022-07-29T05:14:48;4.87;;;3.60;;
3052;SDS011;1536;51.098;6.414;2022-07-29T05:17:15;7.43;;;3.00;;
3052;SDS011;1536;51.098;6.414;2022-07-29T05:19:45;4.80;;;3.50;;
3052;SDS011;1536;51.098;6.414;2022-07-29T05:22:11;4.70;;;2.53;;
3052;SDS011;1536;51.098;6.414;2022-07-29T05:24:38;5.30;;;3.20;;
3052;SDS011;1536;51.098;6.414;2022-07-29T05:27:05;3.27;;;2.97;;
3052;SDS011;1536;51.098;6.414;2022-07-29T05:29:32;3.37;;;2.80;;
3052;SDS011;1536;51.098;6.414;2022-07-29T05:31:59;7.07;;;3.50;;
3052;SDS011;1536;51.098;6.414;2022-07-29T05:34:26;7.63;;;3.57;;
3052;SDS011;1536;51.098;6.414;2022-07-29T05:36:54;7.00;;;3.27;;
3052;SDS011;1536;51.098;6.414;2022-07-29T05:39:21;4.47;;;2.90;;
3052;SDS011;1536;51.098;6.414;2022-07-29T05:41:48;4.67;;;3.20;;
3052;SDS011;1536;51.098;6.414;2022-07-29T05:44:15;3.30;;;3.00;;
3052;SDS011;1536;51.098;6.414;2022-07-29T05:46:42;5.03;;;3.90;;
3052;SDS011;1536;51.098;6.414;2022-07-29T05:49:08;4.90;;;3.20;;
3052;SDS011;1536;51.098;6.414;2022-07-29T05:51:35;5.23;;;3.30;;
3052;SDS011;1536;51.098;6.414;2022-07-29T05:54:04;6.20;;;3.17;;
3052;SDS011;1536;51.098;6.414;2022-07-29T05:56:30;5.27;;;2.80;;
3052;SDS011;1536;51.098;6.414;2022-07-29T05:58:57;6.50;;;2.90;;
3052;SDS011;1536;51.098;6.414;2022-07-29T06:01:24;8.53;;;3.00;;
3052;SDS011;1536;51.098;6.414;2022-07-29T06:04:05;3.80;;;3.07;;
3052;SDS011;1536;51.098;6.414;2022-07-29T06:06:32;5.20;;;2.40;;
3052;SDS011;1536;51.098;6.414;2022-07-29T06:08:59;6.43;;;3.10;;
3052;SDS011;1536;51.098;6.414;2022-07-29T06:11:27;6.40;;;2.97;;
3052;SDS011;1536;51.098;6.414;2022-07-29T06:13:54;6.83;;;3.00;;
3052;SDS011;1536;51.098;6.414;2022-07-29T06:16:21;7.60;;;3.27;;
3052;SDS011;1536;51.098;6.414;2022-07-29T06:18:48;6.40;;;2.83;;
3052;SDS011;1536;51.098;6.414;2022-07-29T06:21:14;4.80;;;2.43;;
3052;SDS011;1536;51.098;6.414;2022-07-29T06:23:41;6.57;;;2.93;;
3052;SDS011;1536;51.098;6.414;2022-07-29T06:26:08;6.43;;;3.10;;
3052;SDS011;1536;51.098;6.414;2022-07-29T06:28:36;6.90;;;3.80;;
3052;SDS011;1536;51.098;6.414;2022-07-29T06:31:03;9.63;;;4.20;;
3052;SDS011;1536;51.098;6.414;2022-07-29T06:33:31;6.20;;;3.30;;
3052;SDS011;1536;51.098;6.414;2022-07-29T06:35:58;9.07;;;3.50;;
3052;SDS011;1536;51.098;6.414;2022-07-29T06:38:25;8.17;;;3.47;;
3052;SDS011;1536;51.098;6.414;2022-07-29T06:40:52;8.73;;;3.20;;
3052;SDS011;1536;51.098;6.414;2022-07-29T06:43:29;10.53;;;3.63;;
3052;SDS011;1536;51.098;6.414;2022-07-29T06:46:00;10.90;;;4.10;;
3052;SDS011;1536;51.098;6.414;2022-07-29T06:48:28;8.07;;;3.53;;
3052;SDS011;1536;51.098;6.414;2022-07-29T06:50:55;6.63;;;3.03;;
3052;SDS011;1536;51.098;6.414;2022-07-29T06:53:22;6.63;;;3.60;;
3052;SDS011;1536;51.098;6.414;2022-07-29T06:55:49;7.70;;;3.70;;
3052;SDS011;1536;51.098;6.414;2022-07-29T06:58:16;11.10;;;3.73;;
3052;SDS011;1536;51.098;6.414;2022-07-29T07:00:45;8.33;;;4.43;;
3052;SDS011;1536;51.098;6.414;2022-07-29T07:03:14;10.77;;;4.40;;
3052;SDS011;1536;51.098;6.414;2022-07-29T07:05:41;8.80;;;4.33;;
3052;SDS011;1536;51.098;6.414;2022-07-29T07:08:07;4.30;;;3.90;;
3052;SDS011;1536;51.098;6.414;2022-07-29T07:10:34;6.13;;;3.70;;
3052;SDS011;1536;51.098;6.414;2022-07-29T07:13:01;8.90;;;4.30;;
3052;SDS011;1536;51.098;6.414;2022-07-29T07:15:28;6.27;;;4.33;;
3052;SDS011;1536;51.098;6.414;2022-07-29T07:17:55;4.50;;;3.83;;
3052;SDS011;1536;51.098;6.414;2022-07-29T07:20:23;11.57;;;5.13;;
3052;SDS011;1536;51.098;6.414;2022-07-29T07:22:51;6.50;;;4.37;;
3052;SDS011;1536;51.098;6.414;2022-07-29T07:25:18;6.67;;;4.10;;
3052;SDS011;1536;51.098;6.414;2022-07-29T07:27:44;4.60;;;4.20;;
3052;SDS011;1536;51.098;6.414;2022-07-29T07:30:12;9.40;;;5.20;;
3052;SDS011;1536;51.098;6.414;2022-07-29T07:32:39;10.43;;;4.10;;
3052;SDS011;1536;51.098;6.414;2022-07-29T07:35:07;6.93;;;3.80;;
3052;SDS011;1536;51.098;6.414;2022-07-29T07:37:36;7.20;;;4.47;;
3052;SDS011;1536;51.098;6.414;2022-07-29T07:40:03;6.20;;;4.97;;
3052;SDS011;1536;51.098;6.414;2022-07-29T07:42:31;6.23;;;3.90;;
3052;SDS011;1536;51.098;6.414;2022-07-29T07:44:58;14.20;;;4.40;;
3052;SDS011;1536;51.098;6.414;2022-07-29T07:47:25;8.40;;;3.57;;
3052;SDS011;1536;51.098;6.414;2022-07-29T07:49:52;7.60;;;4.20;;
3052;SDS011;1536;51.098;6.414;2022-07-29T07:52:20;8.43;;;4.07;;
3052;SDS011;1536;51.098;6.414;2022-07-29T07:54:49;7.90;;;4.17;;
3052;SDS011;1536;51.098;6.414;2022-07-29T07:57:16;6.10;;;4.17;;
3052;SDS011;1536;51.098;6.414;2022-07-29T07:59:43;5.70;;;4.00;;
3052;SDS011;1536;51.098;6.414;2022-07-29T08:02:10;7.00;;;3.90;;
3052;SDS011;1536;51.098;6.414;2022-07-29T08:04:37;8.67;;;3.93;;
3052;SDS011;1536;51.098;6.414;2022-07-29T08:07:05;7.70;;;5.03;;
3052;SDS011;1536;51.098;6.414;2022-07-29T08:09:33;4.40;;;3.50;;
3052;SDS011;1536;51.098;6.414;2022-07-29T08:12:02;6.40;;;3.50;;
3052;SDS011;1536;51.098;6.414;2022-07-29T08:14:30;6.70;;;4.10;;
3052;SDS011;1536;51.098;6.414;2022-07-29T08:16:58;5.43;;;3.90;;
3052;SDS011;1536;51.098;6.414;2022-07-29T08:19:25;6.80;;;4.17;;
3052;SDS011;1536;51.098;6.414;2022-07-29T08:21:52;8.80;;;4.20;;
3052;SDS011;1536;51.098;6.414;2022-07-29T08:24:19;10.53;;;4.40;;
3052;SDS011;1536;51.098;6.414;2022-07-29T08:27:05;11.47;;;4.37;;
3052;SDS011;1536;51.098;6.414;2022-07-29T08:29:32;10.70;;;4.50;;
3052;SDS011;1536;51.098;6.414;2022-07-29T08:31:59;12.73;;;4.40;;
3052;SDS011;1536;51.098;6.414;2022-07-29T08:34:25;10.57;;;4.30;;
3052;SDS011;1536;51.098;6.414;2022-07-29T08:36:53;11.10;;;3.90;;
3052;SDS011;1536;51.098;6.414;2022-07-29T08:39:20;8.47;;;4.73;;
3052;SDS011;1536;51.098;6.414;2022-07-29T08:41:47;6.80;;;4.10;;
3052;SDS011;1536;51.098;6.414;2022-07-29T08:44:17;8.73;;;4.30;;
3052;SDS011;1536;51.098;6.414;2022-07-29T08:46:44;7.10;;;4.00;;
3052;SDS011;1536;51.098;6.414;2022-07-29T08:49:11;8.23;;;5.33;;
3052;SDS011;1536;51.098;6.414;2022-07-29T08:51:39;11.47;;;3.90;;
3052;SDS011;1536;51.098;6.414;2022-07-29T08:54:06;7.83;;;3.90;;
3052;SDS011;1536;51.098;6.414;2022-07-29T08:56:35;5.03;;;3.90;;
3052;SDS011;1536;51.098;6.414;2022-07-29T08:59:02;9.23;;;4.37;;
3052;SDS011;1536;51.098;6.414;2022-07-29T09:01:32;6.07;;;3.60;;
3052;SDS011;1536;51.098;6.414;2022-07-29T09:04:00;8.40;;;3.90;;
3052;SDS011;1536;51.098;6.414;2022-07-29T09:06:29;5.63;;;3.20;;
3052;SDS011;1536;51.098;6.414;2022-07-29T09:09:00;4.60;;;2.90;;
3052;SDS011;1536;51.098;6.414;2022-07-29T09:11:27;7.50;;;3.10;;
3052;SDS011;1536;51.098;6.414;2022-07-29T09:13:54;6.93;;;3.43;;
3052;SDS011;1536;51.098;6.414;2022-07-29T09:16:21;5.90;;;4.17;;
3052;SDS011;1536;51.098;6.414;2022-07-29T09:18:49;8.63;;;3.80;;
3052;SDS011;1536;51.098;6.414;2022-07-29T09:21:16;4.57;;;3.03;;
3052;SDS011;1536;51.098;6.414;2022-07-29T09:24:03;4.73;;;3.10;;
3052;SDS011;1536;51.098;6.414;2022-07-29T09:26:32;8.93;;;3.77;;
3052;SDS011;1536;51.098;6.414;2022-07-29T09:29:01;6.93;;;3.70;;
3052;SDS011;1536;51.098;6.414;2022-07-29T09:31:37;5.07;;;3.33;;
3052;SDS011;1536;51.098;6.414;2022-07-29T09:34:07;6.83;;;3.60;;
3052;SDS011;1536;51.098;6.414;2022-07-29T09:36:38;6.17;;;4.10;;
3052;SDS011;1536;51.098;6.414;2022-07-29T09:39:06;7.80;;;3.20;;
3052;SDS011;1536;51.098;6.414;2022-07-29T09:41:43;5.40;;;2.67;;
3052;SDS011;1536;51.098;6.414;2022-07-29T09:44:11;6.27;;;2.67;;
3052;SDS011;1536;51.098;6.414;2022-07-29T09:46:38;7.60;;;3.37;;
3052;SDS011;1536;51.098;6.414;2022-07-29T09:49:07;11.30;;;3.60;;
3052;SDS011;1536;51.098;6.414;2022-07-29T09:51:35;8.23;;;2.67;;
3052;SDS011;1536;51.098;6.414;2022-07-29T09:54:03;4.40;;;2.97;;
3052;SDS011;1536;51.098;6.414;2022-07-29T09:56:48;4.70;;;2.67;;
3052;SDS011;1536;51.098;6.414;2022-07-29T09:59:15;3.17;;;2.20;;
3052;SDS011;1536;51.098;6.414;2022-07-29T10:01:42;4.63;;;2.90;;
3052;SDS011;1536;51.098;6.414;2022-07-29T10:04:10;6.83;;;3.13;;
3052;SDS011;1536;51.098;6.414;2022-07-29T10:06:45;6.20;;;2.50;;
3052;SDS011;1536;51.098;6.414;2022-07-29T10:09:22;4.73;;;2.43;;
3052;SDS011;1536;51.098;6.414;2022-07-29T10:12:02;7.27;;;2.63;;
3052;SDS011;1536;51.098;6.414;2022-07-29T10:14:30;6.63;;;3.13;;
3052;SDS011;1536;51.098;6.414;2022-07-29T10:16:58;6.03;;;2.93;;
3052;SDS011;1536;51.098;6.414;2022-07-29T10:19:28;6.03;;;3.10;;
3052;SDS011;1536;51.098;6.414;2022-07-29T10:21:56;8.57;;;2.63;;
3052;SDS011;1536;51.098;6.414;2022-07-29T10:24:24;6.57;;;2.80;;
3052;SDS011;1536;51.098;6.414;2022-07-29T10:26:52;4.93;;;2.63;;
3052;SDS011;1536;51.098;6.414;2022-07-29T10:29:22;5.00;;;3.17;;
3052;SDS011;1536;51.098;6.414;2022-07-29T10:31:51;8.30;;;3.20;;
3052;SDS011;1536;51.098;6.414;2022-07-29T10:34:47;7.90;;;3.73;;
3052;SDS011;1536;51.098;6.414;2022-07-29T10:37:39;6.60;;;3.33;;
3052;SDS011;1536;51.098;6.414;2022-07-29T10:40:35;5.60;;;3.23;;
3052;SDS011;1536;51.098;6.414;2022-07-29T10:43:28;6.20;;;2.70;;
3052;SDS011;1536;51.098;6.414;2022-07-29T10:46:01;5.73;;;3.13;;
3052;SDS011;1536;51.098;6.414;2022-07-29T10:48:29;8.63;;;3.80;;
3052;SDS011;1536;51.098;6.414;2022-07-29T10:50:58;8.07;;;3.90;;
3052;SDS011;1536;51.098;6.414;2022-07-29T11:01:51;7.37;;;3.47;;
3052;SDS011;1536;51.098;6.414;2022-07-29T11:07:23;5.60;;;3.07;;
3052;SDS011;1536;51.098;6.414;2022-07-29T11:12:49;10.33;;;4.60;;
3052;SDS011;1536;51.098;6.414;2022-07-29T11:15:17;6.40;;;3.03;;
3052;SDS011;1536;51.098;6.414;2022-07-29T11:20:32;6.40;;;3.90;;
3052;SDS011;1536;51.098;6.414;2022-07-29T11:23:03;5.27;;;3.40;;
3052;SDS011;1536;51.098;6.414;2022-07-29T11:25:44;9.00;;;4.23;;
3052;SDS011;1536;51.098;6.414;2022-07-29T11:28:13;6.93;;;3.70;;
3052;SDS011;1536;51.098;6.414;2022-07-29T11:30:48;3.83;;;3.30;;
3052;SDS011;1536;51.098;6.414;2022-07-29T11:33:27;7.70;;;3.30;;
3052;SDS011;1536;51.098;6.414;2022-07-29T11:36:07;6.33;;;3.27;;
3052;SDS011;1536;51.098;6.414;2022-07-29T11:38:36;4.83;;;2.97;;
3052;SDS011;1536;51.098;6.414;2022-07-29T11:41:23;5.13;;;3.47;;
3052;SDS011;1536;51.098;6.414;2022-07-29T11:43:51;6.97;;;3.20;;
3052;SDS011;1536;51.098;6.414;2022-07-29T11:49:09;4.60;;;3.80;;
3052;SDS011;1536;51.098;6.414;2022-07-29T11:51:37;5.93;;;4.10;;
3052;SDS011;1536;51.098;6.414;2022-07-29T11:54:06;9.27;;;3.50;;
3052;SDS011;1536;51.098;6.414;2022-07-29T11:56:38;8.57;;;3.27;;
3052;SDS011;1536;51.098;6.414;2022-07-29T11:59:08;8.17;;;3.70;;
3052;SDS011;1536;51.098;6.414;2022-07-29T12:01:36;5.87;;;3.60;;
3052;SDS011;1536;51.098;6.414;2022-07-29T12:04:17;5.60;;;3.77;;
3052;SDS011;1536;51.098;6.414;2022-07-29T12:06:48;8.87;;;4.53;;
3052;SDS011;1536;51.098;6.414;2022-07-29T12:09:17;8.83;;;3.93;;
3052;SDS011;1536;51.098;6.414;2022-07-29T12:11:45;7.10;;;3.70;;
3052;SDS011;1536;51.098;6.414;2022-07-29T12:14:26;5.80;;;3.90;;
3052;SDS011;1536;51.098;6.414;2022-07-29T12:16:53;5.70;;;3.30;;
3052;SDS011;1536;51.098;6.414;2022-07-29T12:19:20;7.27;;;3.93;;
3052;SDS011;1536;51.098;6.414;2022-07-29T12:21:47;6.60;;;4.00;;
3052;SDS011;1536;51.098;6.414;2022-07-29T12:24:17;8.83;;;4.77;;
3052;SDS011;1536;51.098;6.414;2022-07-29T12:26:51;5.80;;;3.70;;
3052;SDS011;1536;51.098;6.414;2022-07-29T12:29:18;8.20;;;3.90;;
3052;SDS011;1536;51.098;6.414;2022-07-29T12:31:46;28.93;;;4.10;;
3052;SDS011;1536;51.098;6.414;2022-07-29T12:34:13;6.90;;;3.10;;
3052;SDS011;1536;51.098;6.414;2022-07-29T12:36:41;9.17;;;3.70;;
3052;SDS011;1536;51.098;6.414;2022-07-29T12:39:09;7.27;;;4.50;;
3052;SDS011;1536;51.098;6.414;2022-07-29T12:41:38;8.83;;;3.47;;
3052;SDS011;1536;51.098;6.414;2022-07-29T12:44:05;7.20;;;3.50;;
3052;SDS011;1536;51.098;6.414;2022-07-29T12:46:32;16.60;;;3.93;;
3052;SDS011;1536;51.098;6.414;2022-07-29T12:48:59;5.73;;;3.10;;
3052;SDS011;1536;51.098;6.414;2022-07-29T12:51:29;7.23;;;3.90;;
3052;SDS011;1536;51.098;6.414;2022-07-29T12:54:06;6.10;;;4.10;;
3052;SDS011;1536;51.098;6.414;2022-07-29T12:56:35;5.97;;;3.17;;
3052;SDS011;1536;51.098;6.414;2022-07-29T12:59:11;4.73;;;3.90;;
3052;SDS011;1536;51.098;6.414;2022-07-29T13:01:39;5.03;;;2.70;;
3052;SDS011;1536;51.098;6.414;2022-07-29T13:04:06;7.80;;;3.77;;
3052;SDS011;1536;51.098;6.414;2022-07-29T13:06:35;5.57;;;3.70;;
3052;SDS011;1536;51.098;6.414;2022-07-29T13:09:05;6.47;;;2.90;;
3052;SDS011;1536;51.098;6.414;2022-07-29T13:11:33;7.90;;;3.03;;
3052;SDS011;1536;51.098;6.414;2022-07-29T13:14:01;6.57;;;3.77;;
3052;SDS011;1536;51.098;6.414;2022-07-29T13:16:29;3.93;;;2.60;;
3052;SDS011;1536;51.098;6.414;2022-07-29T13:19:03;6.80;;;4.10;;
3052;SDS011;1536;51.098;6.414;2022-07-29T13:21:34;3.70;;;2.40;;
3052;SDS011;1536;51.098;6.414;2022-07-29T13:24:01;4.10;;;2.53;;
3052;SDS011;1536;51.098;6.414;2022-07-29T13:26:28;6.80;;;2.50;;
3052;SDS011;1536;51.098;6.414;2022-07-29T13:28:55;6.47;;;3.03;;
3052;SDS011;1536;51.098;6.414;2022-07-29T13:31:22;4.93;;;2.43;;
3052;SDS011;1536;51.098;6.414;2022-07-29T13:33:50;10.97;;;3.60;;
3052;SDS011;1536;51.098;6.414;2022-07-29T13:36:17;4.47;;;2.30;;
3052;SDS011;1536;51.098;6.414;2022-07-29T13:38:44;6.73;;;2.53;;
3052;SDS011;1536;51.098;6.414;2022-07-29T13:41:11;7.63;;;2.40;;
3052;SDS011;1536;51.098;6.414;2022-07-29T13:43:38;7.47;;;2.50;;
3052;SDS011;1536;51.098;6.414;2022-07-29T13:46:04;3.30;;;2.60;;
3052;SDS011;1536;51.098;6.414;2022-07-29T13:48:31;5.10;;;2.13;;
3052;SDS011;1536;51.098;6.414;2022-07-29T13:50:59;5.17;;;2.60;;
3052;SDS011;1536;51.098;6.414;2022-07-29T13:53:26;4.90;;;2.20;;
3052;SDS011;1536;51.098;6.414;2022-07-29T13:55:53;7.43;;;2.20;;
3052;SDS011;1536;51.098;6.414;2022-07-29T13:58:20;3.50;;;1.90;;
3052;SDS011;1536;51.098;6.414;2022-07-29T14:00:47;6.20;;;2.70;;
3052;SDS011;1536;51.098;6.414;2022-07-29T14:03:14;6.40;;;2.43;;
3052;SDS011;1536;51.098;6.414;2022-07-29T14:05:41;5.33;;;2.40;;
3052;SDS011;1536;51.098;6.414;2022-07-29T14:08:09;3.63;;;2.10;;
3052;SDS011;1536;51.098;6.414;2022-07-29T14:10:36;5.13;;;2.37;;
3052;SDS011;1536;51.098;6.414;2022-07-29T14:13:02;6.13;;;2.20;;
3052;SDS011;1536;51.098;6.414;2022-07-29T14:15:29;3.90;;;2.33;;
3052;SDS011;1536;51.098;6.414;2022-07-29T14:17:56;5.40;;;2.10;;
3052;SDS011;1536;51.098;6.414;2022-07-29T14:20:23;3.23;;;2.00;;
3052;SDS011;1536;51.098;6.414;2022-07-29T14:22:49;2.83;;;2.00;;
3052;SDS011;1536;51.098;6.414;2022-07-29T14:25:18;3.13;;;1.77;;
3052;SDS011;1536;51.098;6.414;2022-07-29T14:27:44;4.10;;;2.67;;
3052;SDS011;1536;51.098;6.414;2022-07-29T14:30:11;5.73;;;2.27;;
3052;SDS011;1536;51.098;6.414;2022-07-29T14:32:39;2.67;;;2.00;;
3052;SDS011;1536;51.098;6.414;2022-07-29T14:35:06;4.27;;;2.30;;
3052;SDS011;1536;51.098;6.414;2022-07-29T14:37:33;4.63;;;2.27;;
3052;SDS011;1536;51.098;6.414;2022-07-29T14:40:00;6.67;;;2.57;;
3052;SDS011;1536;51.098;6.414;2022-07-29T14:42:30;4.40;;;2.43;;
3052;SDS011;1536;51.098;6.414;2022-07-29T14:44:57;3.00;;;1.87;;
3052;SDS011;1536;51.098;6.414;2022-07-29T14:47:23;2.70;;;2.20;;
3052;SDS011;1536;51.098;6.414;2022-07-29T14:49:50;5.57;;;2.70;;
3052;SDS011;1536;51.098;6.414;2022-07-29T14:52:17;5.43;;;2.43;;
3052;SDS011;1536;51.098;6.414;2022-07-29T14:54:44;3.30;;;2.47;;
3052;SDS011;1536;51.098;6.414;2022-07-29T14:57:11;5.00;;;2.20;;
3052;SDS011;1536;51.098;6.414;2022-07-29T14:59:39;4.90;;;2.40;;
3052;SDS011;1536;51.098;6.414;2022-07-29T15:02:06;2.00;;;1.80;;
3052;SDS011;1536;51.098;6.414;2022-07-29T15:04:32;6.83;;;2.87;;
3052;SDS011;1536;51.098;6.414;2022-07-29T15:06:59;4.37;;;2.57;;
3052;SDS011;1536;51.098;6.414;2022-07-29T15:09:26;4.63;;;2.70;;
3052;SDS011;1536;51.098;6.414;2022-07-29T15:11:53;2.83;;;2.17;;
3052;SDS011;1536;51.098;6.414;2022-07-29T15:14:20;6.60;;;2.17;;
3052;SDS011;1536;51.098;6.414;2022-07-29T15:16:48;2.77;;;2.07;;
3052;SDS011;1536;51.098;6.414;2022-07-29T15:19:15;3.80;;;2.60;;
3052;SDS011;1536;51.098;6.414;2022-07-29T15:21:42;4.73;;;2.50;;
3052;SDS011;1536;51.098;6.414;2022-07-29T15:24:08;2.87;;;2.40;;
3052;SDS011;1536;51.098;6.414;2022-07-29T15:26:35;5.03;;;2.43;;
3052;SDS011;1536;51.098;6.414;2022-07-29T15:29:02;3.13;;;1.90;;
3052;SDS011;1536;51.098;6.414;2022-07-29T15:31:29;4.50;;;2.73;;
3052;SDS011;1536;51.098;6.414;2022-07-29T15:33:57;5.93;;;2.77;;
3052;SDS011;1536;51.098;6.414;2022-07-29T15:36:24;4.93;;;2.73;;
3052;SDS011;1536;51.098;6.414;2022-07-29T15:38:51;3.57;;;2.50;;
3052;SDS011;1536;51.098;6.414;2022-07-29T15:41:19;6.57;;;2.33;;
3052;SDS011;1536;51.098;6.414;2022-07-29T15:43:47;2.70;;;2.40;;
3052;SDS011;1536;51.098;6.414;2022-07-29T15:46:15;4.20;;;2.50;;
3052;SDS011;1536;51.098;6.414;2022-07-29T15:49:03;4.17;;;2.70;;
3052;SDS011;1536;51.098;6.414;2022-07-29T15:51:30;4.00;;;2.77;;